Smokey Hill High School (Aurora), Colorado
Current Conditions -  °F | °C
As of 7:53 PM on Sunday 21 Dec 2014 (Local Time) from KAPA Reporting Station
Light Rain Light Rain  
Wind Chill: 37°   Ceiling: 4200
Heat Index: 42°   Visibility: 10mi
Dew Point: 31°   Wind: 9mph
Humidity: 65%   Direction: 350°N
Pressure: 29.61"   Gusts: NA
Location:  39.6262°N, 104.8012°W
Report Text: KAPA 220253Z 35008KT 10SM -RA BKN042 OVC070 06/M01 A2961 RMK AO2 RAB46SNB46E53 SLP026 P0000 60000 T00561006 53009
Loading
Personal Weather Stations






























Interactive Weather Map New forecast layout! Learn more

10-Day Weather Forecast

Advertisements
Track Severe Weather on mobile